createdAt,value
2023-04-06T00:01:03.009Z,6.70
2023-04-06T00:03:48.763Z,5.03
2023-04-06T00:06:34.935Z,6.63
2023-04-06T00:09:20.805Z,6.93
2023-04-06T00:12:06.641Z,7.03
2023-04-06T00:14:55.396Z,8.32
2023-04-06T00:17:41.546Z,5.10
2023-04-06T00:20:27.028Z,7.13
2023-04-06T00:23:12.518Z,6.63
2023-04-06T00:25:58.287Z,8.52
2023-04-06T00:28:43.635Z,4.10
2023-04-06T00:31:29.285Z,5.45
2023-04-06T00:34:16.945Z,6.07
2023-04-06T00:37:02.802Z,7.35
2023-04-06T00:39:49.493Z,6.00
2023-04-06T00:42:34.936Z,7.57
2023-04-06T00:45:20.588Z,7.00
2023-04-06T00:48:08.312Z,9.43
2023-04-06T00:50:56.018Z,6.25
2023-04-06T00:53:41.539Z,4.57
2023-04-06T00:56:29.196Z,5.25
2023-04-06T00:59:14.567Z,5.38
2023-04-06T01:02:01.047Z,4.18
2023-04-06T01:04:58.713Z,4.75
2023-04-06T01:07:55.420Z,4.03
2023-04-06T01:10:44.452Z,3.20
2023-04-06T01:13:40.492Z,6.47
2023-04-06T01:16:34.038Z,3.72
2023-04-06T01:19:29.192Z,5.07
2023-04-06T01:22:17.865Z,4.90
2023-04-06T01:25:12.028Z,3.40
2023-04-06T01:28:20.391Z,3.88
2023-04-06T01:31:23.885Z,3.08
2023-04-06T01:34:11.959Z,5.45
2023-04-06T01:36:57.672Z,3.45
2023-04-06T01:39:49.299Z,5.17
2023-04-06T01:42:44.921Z,2.97
2023-04-06T01:45:36.643Z,4.00
2023-04-06T01:48:33.959Z,5.03
2023-04-06T01:51:26.912Z,1.42
2023-04-06T01:54:17.584Z,4.78
2023-04-06T01:57:16.021Z,2.83
2023-04-06T02:00:15.610Z,4.45
2023-04-06T02:03:06.274Z,2.08
2023-04-06T02:05:52.319Z,3.17
2023-04-06T02:08:52.484Z,2.20
2023-04-06T02:11:38.440Z,2.90
2023-04-06T02:14:26.948Z,1.77
2023-04-06T02:17:16.596Z,2.65
2023-04-06T02:20:03.296Z,1.95
2023-04-06T02:22:48.613Z,3.40
2023-04-06T02:25:34.486Z,3.17
2023-04-06T02:28:20.000Z,3.50
2023-04-06T02:31:06.055Z,3.53
2023-04-06T02:33:51.485Z,1.83
2023-04-06T02:36:37.958Z,6.85
2023-04-06T02:39:23.782Z,7.80
2023-04-06T02:42:09.977Z,4.95
2023-04-06T02:44:55.613Z,5.40
2023-04-06T02:47:45.042Z,2.45
2023-04-06T02:50:34.417Z,3.97
2023-04-06T02:53:23.901Z,4.63
2023-04-06T02:56:09.966Z,1.42
2023-04-06T02:59:03.936Z,3.85
2023-04-06T03:01:51.827Z,4.53
2023-04-06T03:04:37.903Z,6.60
2023-04-06T03:07:27.528Z,3.70
2023-04-06T03:10:14.014Z,3.40
2023-04-06T03:13:00.378Z,1.88
2023-04-06T03:16:07.692Z,2.38
2023-04-06T03:18:54.373Z,1.75
2023-04-06T03:21:40.788Z,4.00
2023-04-06T03:24:27.262Z,2.67
2023-04-06T03:27:12.877Z,2.15
2023-04-06T03:29:59.799Z,7.65
2023-04-06T03:32:51.424Z,2.00
2023-04-06T03:35:39.149Z,2.83
2023-04-06T03:38:25.970Z,2.42
2023-04-06T03:41:12.036Z,3.00
2023-04-06T03:44:00.142Z,2.70
2023-04-06T03:46:45.716Z,2.88
2023-04-06T03:49:31.633Z,2.40
2023-04-06T03:52:18.175Z,3.33
2023-04-06T03:55:03.999Z,2.05
2023-04-06T03:57:49.703Z,3.50
2023-04-06T04:00:35.470Z,3.38
2023-04-06T04:03:22.661Z,2.15
2023-04-06T04:06:08.468Z,1.95
2023-04-06T04:08:54.110Z,3.50
2023-04-06T04:11:39.821Z,2.45
2023-04-06T04:14:26.478Z,4.00
2023-04-06T04:17:12.122Z,7.05
2023-04-06T04:19:57.835Z,1.83
2023-04-06T04:22:45.888Z,2.05
2023-04-06T04:25:31.871Z,1.20
2023-04-06T04:28:17.360Z,2.20
2023-04-06T04:31:05.460Z,2.53
2023-04-06T04:33:53.511Z,1.65
2023-04-06T04:36:45.699Z,2.38
2023-04-06T04:39:39.456Z,3.25
2023-04-06T04:42:26.465Z,2.53
2023-04-06T04:45:15.495Z,2.67
2023-04-06T04:48:02.088Z,1.95
2023-04-06T04:50:56.570Z,1.90
2023-04-06T04:53:46.452Z,1.35
2023-04-06T04:56:43.980Z,1.15
2023-04-06T04:59:44.060Z,1.40
2023-04-06T05:02:45.451Z,1.85
2023-04-06T05:05:39.214Z,1.80
2023-04-06T05:08:25.629Z,2.42
2023-04-06T05:11:14.409Z,1.27
2023-04-06T05:14:28.183Z,2.03
2023-04-06T05:17:21.402Z,2.35
2023-04-06T05:20:10.873Z,2.22
2023-04-06T05:23:47.304Z,1.70
2023-04-06T05:26:32.763Z,1.83
2023-04-06T05:29:42.985Z,1.35
2023-04-06T05:32:29.189Z,2.28
2023-04-06T05:35:15.914Z,3.78
2023-04-06T05:38:09.310Z,3.40
2023-04-06T05:44:32.018Z,2.20
2023-04-06T05:47:59.916Z,1.27
2023-04-06T05:51:10.218Z,0.98
2023-04-06T05:54:15.058Z,1.58
2023-04-06T05:57:19.492Z,1.35
2023-04-06T06:00:16.299Z,3.50
2023-04-06T06:03:16.356Z,1.10
2023-04-06T06:06:16.736Z,5.30
2023-04-06T06:09:23.618Z,1.38
2023-04-06T06:12:42.118Z,1.58
2023-04-06T06:15:38.814Z,1.25
2023-04-06T06:18:30.696Z,1.58
2023-04-06T06:21:22.015Z,0.77
2023-04-06T06:27:43.797Z,0.50
2023-04-06T06:31:03.743Z,1.25
2023-04-06T06:34:24.528Z,1.58
2023-04-06T06:40:41.679Z,0.70
2023-04-06T06:43:39.087Z,1.40
2023-04-06T06:46:33.806Z,2.25
2023-04-06T06:49:20.775Z,1.98
2023-04-06T06:52:06.287Z,3.17
2023-04-06T06:54:51.803Z,1.15
2023-04-06T06:57:39.560Z,1.10
2023-04-06T07:00:27.070Z,1.27
2023-04-06T07:03:13.124Z,0.50
2023-04-06T07:05:58.660Z,2.33
2023-04-06T07:08:45.593Z,1.40
2023-04-06T07:11:31.527Z,1.30
2023-04-06T07:14:18.094Z,1.10
2023-04-06T07:17:04.465Z,1.40
2023-04-06T07:19:50.669Z,1.58
2023-04-06T07:22:36.514Z,1.50
2023-04-06T07:25:25.169Z,1.00
2023-04-06T07:28:11.292Z,1.33
2023-04-06T07:30:57.645Z,0.82
2023-04-06T07:33:44.148Z,0.93
2023-04-06T07:36:30.142Z,1.35
2023-04-06T07:39:25.491Z,1.42
2023-04-06T07:42:18.152Z,1.00
2023-04-06T07:45:05.357Z,1.50
2023-04-06T07:47:51.885Z,1.00
2023-04-06T07:50:37.651Z,0.38
2023-04-06T07:53:25.120Z,0.77
2023-04-06T07:56:10.901Z,0.60
2023-04-06T07:58:58.303Z,1.02
2023-04-06T08:01:44.307Z,0.98
2023-04-06T08:04:29.783Z,1.20
2023-04-06T08:07:15.436Z,0.40
2023-04-06T08:10:36.103Z,0.55
2023-04-06T08:13:22.056Z,1.10
2023-04-06T08:16:08.921Z,2.92
2023-04-06T08:18:54.164Z,1.02
2023-04-06T08:21:43.574Z,0.57
2023-04-06T08:24:29.616Z,1.05
2023-04-06T08:27:15.867Z,3.67
2023-04-06T08:30:02.607Z,3.58
2023-04-06T08:32:48.539Z,3.88
2023-04-06T08:35:39.980Z,1.95
2023-04-06T08:38:58.668Z,2.47
2023-04-06T08:42:08.623Z,5.95
2023-04-06T08:45:16.097Z,1.08
2023-04-06T08:48:09.466Z,0.98
2023-04-06T08:50:56.248Z,1.30
2023-04-06T08:53:42.187Z,1.60
2023-04-06T08:56:29.515Z,1.50
2023-04-06T08:59:16.105Z,0.82
2023-04-06T09:02:06.473Z,1.92
2023-04-06T09:04:54.730Z,1.15
2023-04-06T09:07:40.596Z,1.40
2023-04-06T09:10:26.887Z,2.20
2023-04-06T09:13:12.555Z,3.10
2023-04-06T09:16:06.178Z,8.68
2023-04-06T09:18:51.697Z,1.55
2023-04-06T09:21:38.043Z,1.58
2023-04-06T09:24:27.223Z,3.55
2023-04-06T09:27:13.629Z,4.20
2023-04-06T09:30:06.318Z,2.03
2023-04-06T09:32:53.806Z,3.75
2023-04-06T09:35:40.077Z,3.53
2023-04-06T09:38:26.117Z,1.58
2023-04-06T09:41:11.874Z,2.30
2023-04-06T09:44:07.991Z,2.05
2023-04-06T09:46:59.598Z,3.95
2023-04-06T09:49:51.103Z,1.42
2023-04-06T09:52:52.345Z,2.42
2023-04-06T09:55:44.266Z,1.17
2023-04-06T09:58:35.050Z,1.58
2023-04-06T10:01:21.827Z,2.33
2023-04-06T10:04:19.634Z,3.40
2023-04-06T10:07:07.801Z,5.38
2023-04-06T10:09:56.375Z,8.65
2023-04-06T10:12:43.551Z,34.97
2023-04-06T10:15:32.465Z,37.47
2023-04-06T10:18:18.743Z,5.78
2023-04-06T10:21:12.848Z,29.05
2023-04-06T10:24:03.483Z,13.60
2023-04-06T10:27:28.024Z,10.43
2023-04-06T10:30:17.064Z,2.92
2023-04-06T10:33:17.374Z,9.32
2023-04-06T10:36:23.428Z,10.65
2023-04-06T10:39:09.227Z,12.52
2023-04-06T10:41:54.984Z,12.38
2023-04-06T10:44:45.817Z,7.25
2023-04-06T10:47:41.047Z,6.90
2023-04-06T10:50:27.216Z,9.27
2023-04-06T10:53:12.609Z,5.32
2023-04-06T10:55:59.002Z,2.35
2023-04-06T10:58:53.917Z,3.15
2023-04-06T11:01:46.715Z,2.15
2023-04-06T11:04:32.655Z,4.72
2023-04-06T11:07:24.688Z,5.03
2023-04-06T11:10:16.584Z,4.65
2023-04-06T11:13:03.599Z,8.07
2023-04-06T11:15:50.202Z,5.70
2023-04-06T11:18:36.267Z,4.18
2023-04-06T11:21:41.215Z,3.35
2023-04-06T11:24:30.663Z,1.98
2023-04-06T11:27:19.412Z,1.63
2023-04-06T11:30:06.479Z,1.20
2023-04-06T11:32:52.863Z,1.58
2023-04-06T11:35:38.471Z,3.35
2023-04-06T11:38:24.046Z,5.28
2023-04-06T11:41:09.924Z,2.70
2023-04-06T11:43:57.020Z,2.55
2023-04-06T11:46:52.182Z,6.57
2023-04-06T11:49:39.958Z,7.32
2023-04-06T11:52:28.542Z,5.53
2023-04-06T11:55:17.002Z,13.02
2023-04-06T11:58:02.709Z,38.00
2023-04-06T12:00:48.342Z,16.67
2023-04-06T12:03:33.889Z,19.90
2023-04-06T12:06:19.811Z,15.95
2023-04-06T12:09:05.656Z,10.32
2023-04-06T12:11:51.281Z,18.77
2023-04-06T12:14:36.942Z,9.52
2023-04-06T12:17:22.615Z,10.35
2023-04-06T12:20:22.111Z,7.22
2023-04-06T12:23:11.377Z,8.38
2023-04-06T12:25:57.373Z,10.18
2023-04-06T12:28:42.884Z,4.60
2023-04-06T12:31:29.549Z,6.68
2023-04-06T12:34:15.129Z,6.25
2023-04-06T12:37:00.708Z,3.67
2023-04-06T12:39:47.268Z,2.95
2023-04-06T12:42:32.611Z,3.97
2023-04-06T12:45:18.945Z,5.82
2023-04-06T12:48:04.640Z,5.10
2023-04-06T12:51:01.541Z,2.97
2023-04-06T12:53:47.016Z,1.55
2023-04-06T12:56:33.738Z,2.85
2023-04-06T12:59:21.933Z,5.57
2023-04-06T13:02:07.622Z,6.15
2023-04-06T13:04:53.046Z,4.00
2023-04-06T13:07:38.828Z,7.65
2023-04-06T13:10:24.320Z,4.72
2023-04-06T13:13:10.373Z,5.75
2023-04-06T13:16:04.760Z,2.75
2023-04-06T13:18:51.317Z,5.28
2023-04-06T13:21:36.994Z,7.60
2023-04-06T13:24:22.997Z,5.35
2023-04-06T13:27:08.371Z,2.00
2023-04-06T13:29:55.846Z,5.85
2023-04-06T13:32:41.409Z,4.82
2023-04-06T13:35:27.713Z,3.90
2023-04-06T13:38:15.505Z,2.38
2023-04-06T13:41:01.196Z,4.07
2023-04-06T13:43:46.442Z,5.05
2023-04-06T13:46:31.990Z,2.90
2023-04-06T13:49:17.367Z,2.55
2023-04-06T13:52:02.819Z,4.45
2023-04-06T13:54:49.406Z,5.93
2023-04-06T13:57:34.984Z,3.35
2023-04-06T14:00:20.889Z,3.83
2023-04-06T14:03:07.899Z,7.35
2023-04-06T14:05:53.410Z,4.72
2023-04-06T14:08:39.024Z,5.72
2023-04-06T14:11:25.488Z,4.20
2023-04-06T14:14:11.215Z,4.35
2023-04-06T14:16:57.065Z,4.25
2023-04-06T14:19:42.690Z,6.35
2023-04-06T14:25:14.104Z,2.95
2023-04-06T14:27:59.591Z,3.88
2023-04-06T14:30:45.634Z,1.73
2023-04-06T14:33:31.699Z,4.20
2023-04-06T14:36:17.106Z,3.40
2023-04-06T14:39:13.876Z,4.57
2023-04-06T14:42:02.660Z,3.58
2023-04-06T14:45:16.884Z,4.13
2023-04-06T14:48:13.198Z,6.07
2023-04-06T14:50:59.866Z,6.63
2023-04-06T14:53:54.641Z,3.55
2023-04-06T14:56:40.516Z,5.35
2023-04-06T14:59:26.159Z,7.80
2023-04-06T15:02:16.787Z,7.80
2023-04-06T15:05:02.877Z,18.08
2023-04-06T15:07:48.635Z,2.97
2023-04-06T15:10:34.929Z,2.22
2023-04-06T15:13:21.390Z,1.90
2023-04-06T15:16:07.804Z,4.97
2023-04-06T15:18:53.871Z,3.25
2023-04-06T15:21:39.300Z,6.15
2023-04-06T15:24:24.990Z,0.90
2023-04-06T15:27:10.279Z,3.33
2023-04-06T15:29:55.717Z,1.75
2023-04-06T15:32:41.237Z,6.75
2023-04-06T15:35:27.452Z,6.82
2023-04-06T15:38:12.820Z,6.22
2023-04-06T15:40:58.452Z,2.75
2023-04-06T15:43:44.406Z,3.30
2023-04-06T15:46:30.776Z,1.88
2023-04-06T15:49:16.490Z,2.80
2023-04-06T15:52:02.532Z,1.50
2023-04-06T15:54:48.082Z,5.55
2023-04-06T15:57:34.088Z,4.95
2023-04-06T16:00:20.109Z,4.40
2023-04-06T16:03:06.692Z,3.53
2023-04-06T16:06:08.231Z,2.83
2023-04-06T16:08:55.049Z,2.78
2023-04-06T16:11:42.034Z,2.17
2023-04-06T16:14:27.879Z,3.63
2023-04-06T16:17:23.631Z,2.85
2023-04-06T16:20:11.962Z,2.85
2023-04-06T16:22:58.250Z,5.85
2023-04-06T16:25:44.931Z,3.33
2023-04-06T16:28:31.526Z,6.90
2023-04-06T16:31:22.339Z,5.50
2023-04-06T16:34:08.686Z,5.50
2023-04-06T16:36:56.890Z,6.60
2023-04-06T16:39:42.795Z,4.40
2023-04-06T16:42:28.604Z,5.47
2023-04-06T16:45:15.958Z,5.75
2023-04-06T16:48:06.789Z,3.17
2023-04-06T16:50:52.931Z,4.28
2023-04-06T16:53:39.332Z,6.90
2023-04-06T16:56:25.752Z,4.18
2023-04-06T16:59:11.697Z,6.57
2023-04-06T17:01:57.752Z,5.40
2023-04-06T17:04:43.618Z,2.90
2023-04-06T17:07:32.973Z,3.90
2023-04-06T17:10:24.264Z,8.07
2023-04-06T17:13:19.089Z,5.43
2023-04-06T17:16:07.968Z,3.70
2023-04-06T17:18:53.780Z,3.75
2023-04-06T17:21:43.252Z,3.75
2023-04-06T17:24:29.207Z,6.13
2023-04-06T17:27:15.983Z,9.15
2023-04-06T17:30:06.821Z,6.43
2023-04-06T17:32:52.653Z,6.40
2023-04-06T17:35:38.670Z,3.30
2023-04-06T17:38:25.329Z,10.38
2023-04-06T17:41:14.653Z,5.07
2023-04-06T17:44:00.969Z,4.00
2023-04-06T17:46:46.968Z,5.63
2023-04-06T17:49:32.429Z,4.45
2023-04-06T17:52:18.144Z,3.70
2023-04-06T17:55:04.008Z,5.32
2023-04-06T17:57:49.900Z,7.03
2023-04-06T18:00:35.548Z,6.05
2023-04-06T18:03:20.974Z,4.03
2023-04-06T18:06:14.561Z,2.38
2023-04-06T18:09:01.012Z,2.83
2023-04-06T18:11:46.562Z,3.00
2023-04-06T18:14:32.229Z,9.98
2023-04-06T18:17:17.879Z,4.03
2023-04-06T18:20:03.911Z,5.35
2023-04-06T18:25:40.533Z,1.63
2023-04-06T18:28:25.779Z,1.95
2023-04-06T18:31:11.523Z,2.08
2023-04-06T18:33:57.594Z,3.72
2023-04-06T18:36:44.150Z,2.70
2023-04-06T18:39:29.435Z,3.38
2023-04-06T18:42:15.049Z,4.75
2023-04-06T18:45:00.796Z,5.65
2023-04-06T18:47:47.639Z,9.27
2023-04-06T18:50:33.259Z,9.23
2023-04-06T18:53:19.177Z,11.57
2023-04-06T18:56:15.714Z,4.88
2023-04-06T18:59:05.403Z,10.32
2023-04-06T19:01:54.098Z,5.68
2023-04-06T19:04:40.391Z,5.22
2023-04-06T19:07:27.101Z,4.03
2023-04-06T19:10:12.715Z,6.00
2023-04-06T19:13:22.822Z,7.95
2023-04-06T19:16:19.697Z,6.60
2023-04-06T19:19:06.280Z,5.50
2023-04-06T19:22:29.397Z,6.50
2023-04-06T19:25:49.796Z,7.22
2023-04-06T19:28:36.941Z,18.15
2023-04-06T19:31:23.037Z,6.28
2023-04-06T19:34:08.724Z,28.85
2023-04-06T19:37:05.446Z,36.85
2023-04-06T19:40:08.107Z,50.90
2023-04-06T19:43:38.421Z,64.90
2023-04-06T19:46:34.066Z,30.33
2023-04-06T19:49:19.551Z,36.33
2023-04-06T19:52:07.687Z,70.07
2023-04-06T19:54:53.171Z,46.85
2023-04-06T19:57:39.306Z,31.75
2023-04-06T20:00:24.946Z,33.65
2023-04-06T20:03:10.845Z,39.67
2023-04-06T20:09:28.980Z,20.00
2023-04-06T20:12:14.607Z,18.30
2023-04-06T20:15:01.702Z,18.83
2023-04-06T20:17:47.349Z,25.55
2023-04-06T20:20:33.106Z,16.83
2023-04-06T20:23:21.450Z,14.38
2023-04-06T20:26:11.648Z,12.55
2023-04-06T20:28:57.353Z,11.70
2023-04-06T20:31:43.319Z,13.98
2023-04-06T20:34:30.373Z,15.75
2023-04-06T20:37:16.629Z,17.88
2023-04-06T20:40:01.976Z,10.30
2023-04-06T20:42:48.804Z,15.35
2023-04-06T20:45:38.607Z,15.50
2023-04-06T20:48:25.665Z,17.48
2023-04-06T20:51:19.751Z,16.13
2023-04-06T20:54:05.330Z,24.85
2023-04-06T20:56:50.907Z,19.48
2023-04-06T20:59:37.816Z,25.42
2023-04-06T21:02:23.269Z,20.58
2023-04-06T21:05:09.279Z,22.38
2023-04-06T21:07:55.515Z,16.80
2023-04-06T21:10:41.065Z,18.05
2023-04-06T21:13:27.192Z,12.27
2023-04-06T21:16:13.026Z,22.40
2023-04-06T21:19:01.608Z,21.27
2023-04-06T21:21:48.059Z,20.60
2023-04-06T21:24:33.679Z,10.98
2023-04-06T21:27:19.108Z,20.10
2023-04-06T21:30:04.689Z,12.13
2023-04-06T21:32:50.459Z,27.27
2023-04-06T21:35:40.740Z,19.42
2023-04-06T21:38:26.229Z,32.58
2023-04-06T21:41:11.703Z,26.60
2023-04-06T21:43:57.009Z,38.92
2023-04-06T21:46:42.615Z,28.58
2023-04-06T21:49:27.991Z,35.10
2023-04-06T21:52:13.490Z,39.42
2023-04-06T21:54:58.792Z,26.40
2023-04-06T21:57:44.645Z,19.50
2023-04-06T22:00:30.046Z,23.05
2023-04-06T22:03:15.792Z,20.30
2023-04-06T22:06:04.360Z,37.28
2023-04-06T22:08:50.086Z,20.27
2023-04-06T22:11:35.866Z,15.52
2023-04-06T22:14:21.747Z,16.15
2023-04-06T22:17:07.439Z,16.58
2023-04-06T22:19:52.867Z,16.65
2023-04-06T22:22:39.187Z,20.25
2023-04-06T22:25:24.871Z,12.52
2023-04-06T22:28:10.179Z,13.52
2023-04-06T22:30:55.693Z,19.83
2023-04-06T22:33:41.095Z,10.82
2023-04-06T22:36:27.122Z,83.38
2023-04-06T22:39:12.525Z,38.85
2023-04-06T22:41:58.023Z,17.58
2023-04-06T22:44:43.370Z,17.23
2023-04-06T22:47:29.593Z,20.55
2023-04-06T22:50:16.336Z,20.83
2023-04-06T22:53:02.397Z,33.78
2023-04-06T22:55:47.649Z,18.50
2023-04-06T22:58:33.092Z,25.23
2023-04-06T23:01:18.607Z,17.98
2023-04-06T23:04:04.411Z,20.15
2023-04-06T23:06:49.630Z,20.42
2023-04-06T23:09:35.053Z,16.27
2023-04-06T23:12:23.699Z,10.43
2023-04-06T23:15:09.988Z,17.95
2023-04-06T23:17:55.730Z,18.80
2023-04-06T23:20:41.343Z,17.13
2023-04-06T23:23:26.608Z,22.85
2023-04-06T23:26:12.009Z,15.35
2023-04-06T23:28:57.453Z,15.95
2023-04-06T23:31:42.718Z,23.58
2023-04-06T23:34:28.247Z,35.72
2023-04-06T23:37:13.814Z,19.13
2023-04-06T23:40:00.225Z,18.05
2023-04-06T23:42:46.250Z,16.33
2023-04-06T23:45:33.025Z,17.02
2023-04-06T23:48:18.402Z,16.20
2023-04-06T23:51:03.982Z,15.93
2023-04-06T23:53:49.367Z,16.13
2023-04-06T23:56:34.934Z,23.35
2023-04-06T23:59:20.343Z,15.15
